createdAt,value
2018-07-12T00:00:26.830Z,1028.24
2018-07-12T00:01:26.821Z,1028.31
2018-07-12T00:02:26.816Z,1028.31
2018-07-12T00:03:26.814Z,1028.32
2018-07-12T00:04:26.810Z,1028.33
2018-07-12T00:05:26.802Z,1028.3
2018-07-12T00:06:26.797Z,1028.3
2018-07-12T00:07:26.793Z,1028.33
2018-07-12T00:08:26.788Z,1028.32
2018-07-12T00:09:26.786Z,1028.3
2018-07-12T00:10:26.822Z,1028.33
2018-07-12T00:11:26.775Z,1028.39
2018-07-12T00:12:26.769Z,1028.32
2018-07-12T00:13:26.764Z,1028.3
2018-07-12T00:14:26.760Z,1028.28
2018-07-12T00:15:26.754Z,1028.32
2018-07-12T00:16:26.753Z,1028.33
2018-07-12T00:17:26.745Z,1028.32
2018-07-12T00:18:26.741Z,1028.33
2018-07-12T00:19:26.735Z,1028.29
2018-07-12T00:20:26.732Z,1028.28
2018-07-12T00:21:26.728Z,1028.24
2018-07-12T00:22:26.722Z,1028.23
2018-07-12T00:23:26.717Z,1028.22
2018-07-12T00:24:26.712Z,1028.24
2018-07-12T00:25:26.708Z,1028.23
2018-07-12T00:26:26.703Z,1028.21
2018-07-12T00:27:26.698Z,1028.21
2018-07-12T00:28:26.694Z,1028.2
2018-07-12T00:29:26.689Z,1028.23
2018-07-12T00:30:26.684Z,1028.23
2018-07-12T00:31:26.680Z,1028.24
2018-07-12T00:32:26.675Z,1028.25
2018-07-12T00:33:26.673Z,1028.28
2018-07-12T00:34:26.665Z,1028.29
2018-07-12T00:35:26.665Z,1028.3
2018-07-12T00:36:26.657Z,1028.33
2018-07-12T00:37:26.652Z,1028.33
2018-07-12T00:38:26.648Z,1028.33
2018-07-12T00:39:26.643Z,1028.33
2018-07-12T00:40:26.639Z,1028.35
2018-07-12T00:41:26.634Z,1028.32
2018-07-12T00:42:26.629Z,1028.31
2018-07-12T00:43:26.625Z,1028.31
2018-07-12T00:44:26.626Z,1028.3
2018-07-12T00:45:26.615Z,1028.29
2018-07-12T00:46:26.611Z,1028.28
2018-07-12T00:47:26.608Z,1028.3
2018-07-12T00:48:26.601Z,1028.27
2018-07-12T00:49:26.596Z,1028.3
2018-07-12T00:50:26.600Z,1028.27
2018-07-12T00:51:26.593Z,1028.27
2018-07-12T00:52:26.583Z,1028.27
2018-07-12T00:53:26.578Z,1028.24
2018-07-12T00:54:26.577Z,1028.26
2018-07-12T00:55:26.571Z,1028.28
2018-07-12T00:56:26.565Z,1028.25
2018-07-12T00:57:26.564Z,1028.26
2018-07-12T00:58:26.555Z,1028.21
2018-07-12T00:59:26.550Z,1028.21
2018-07-12T01:00:26.547Z,1028.27
2018-07-12T01:01:27.148Z,1028.22
2018-07-12T01:02:26.538Z,1028.23
2018-07-12T01:03:26.532Z,1028.22
2018-07-12T01:04:26.531Z,1028.24
2018-07-12T01:05:26.523Z,1028.18
2018-07-12T01:06:26.519Z,1028.21
2018-07-12T01:07:26.514Z,1028.17
2018-07-12T01:08:26.509Z,1028.16
2018-07-12T01:09:26.512Z,1028.21
2018-07-12T01:10:26.502Z,1028.17
2018-07-12T01:11:26.498Z,1028.2
2018-07-12T01:12:26.492Z,1028.22
2018-07-12T01:13:26.487Z,1028.2
2018-07-12T01:14:26.481Z,1028.2
2018-07-12T01:15:26.476Z,1028.2
2018-07-12T01:16:26.472Z,1028.21
2018-07-12T01:17:26.468Z,1028.19
2018-07-12T01:18:26.463Z,1028.19
2018-07-12T01:19:26.459Z,1028.19
2018-07-12T01:20:26.455Z,1028.2
2018-07-12T01:21:26.449Z,1028.16
2018-07-12T01:22:26.448Z,1028.19
2018-07-12T01:23:26.440Z,1028.15
2018-07-12T01:24:26.436Z,1028.16
2018-07-12T01:25:26.430Z,1028.15
2018-07-12T01:26:26.426Z,1028.14
2018-07-12T01:27:26.422Z,1028.12
2018-07-12T01:28:26.416Z,1028.11
2018-07-12T01:29:26.412Z,1028.11
2018-07-12T01:30:26.407Z,1028.11
2018-07-12T01:31:26.405Z,1028.1
2018-07-12T01:32:26.398Z,1028.11
2018-07-12T01:33:26.393Z,1028.11
2018-07-12T01:34:26.388Z,1028.07
2018-07-12T01:35:26.384Z,1028.09
2018-07-12T01:36:26.379Z,1028.1
2018-07-12T01:37:26.375Z,1028.13
2018-07-12T01:38:26.370Z,1028.09
2018-07-12T01:39:26.364Z,1028.08
2018-07-12T01:40:26.360Z,1028.09
2018-07-12T01:41:26.357Z,1028.08
2018-07-12T01:42:26.351Z,1028.09
2018-07-12T01:43:26.348Z,1028.09
2018-07-12T01:44:26.343Z,1028.09
2018-07-12T01:45:26.337Z,1028.08
2018-07-12T01:46:26.333Z,1028.06
2018-07-12T01:47:26.330Z,1028.05
2018-07-12T01:48:26.323Z,1028.04
2018-07-12T01:49:26.318Z,1028.03
2018-07-12T01:50:26.316Z,1028.04
2018-07-12T01:51:26.309Z,1028.02
2018-07-12T01:52:26.304Z,1027.98
2018-07-12T01:53:26.300Z,1028
2018-07-12T01:54:26.294Z,1028.02
2018-07-12T01:55:26.290Z,1028
2018-07-12T01:56:26.286Z,1027.99
2018-07-12T01:57:26.281Z,1027.98
2018-07-12T01:58:26.275Z,1027.96
2018-07-12T01:59:26.271Z,1027.95
2018-07-12T02:00:26.285Z,1027.96
2018-07-12T02:01:26.262Z,1027.97
2018-07-12T02:02:26.258Z,1027.96
2018-07-12T02:03:26.256Z,1027.95
2018-07-12T02:04:26.248Z,1027.97
2018-07-12T02:05:26.243Z,1027.95
2018-07-12T02:06:26.238Z,1027.96
2018-07-12T02:07:26.234Z,1027.97
2018-07-12T02:08:26.231Z,1027.91
2018-07-12T02:09:26.228Z,1027.9
2018-07-12T02:10:26.221Z,1027.89
2018-07-12T02:11:26.215Z,1027.87
2018-07-12T02:12:26.210Z,1027.88
2018-07-12T02:13:26.206Z,1027.84
2018-07-12T02:14:26.205Z,1027.85
2018-07-12T02:15:26.197Z,1027.87
2018-07-12T02:16:26.191Z,1027.91
2018-07-12T02:17:26.188Z,1027.87
2018-07-12T02:18:26.187Z,1027.83
2018-07-12T02:19:26.178Z,1027.81
2018-07-12T02:20:26.175Z,1027.82
2018-07-12T02:21:26.171Z,1027.74
2018-07-12T02:22:26.164Z,1027.74
2018-07-12T02:23:26.166Z,1027.74
2018-07-12T02:24:26.155Z,1027.7
2018-07-12T02:25:26.150Z,1027.68
2018-07-12T02:26:26.146Z,1027.67
2018-07-12T02:27:26.142Z,1027.68
2018-07-12T02:28:26.137Z,1027.69
2018-07-12T02:29:26.132Z,1027.65
2018-07-12T02:30:26.128Z,1027.62
2018-07-12T02:31:26.123Z,1027.69
2018-07-12T02:32:26.118Z,1027.65
2018-07-12T02:33:26.114Z,1027.61
2018-07-12T02:34:26.112Z,1027.61
2018-07-12T02:35:26.105Z,1027.63
2018-07-12T02:36:26.100Z,1027.59
2018-07-12T02:37:26.099Z,1027.59
2018-07-12T02:38:26.091Z,1027.59
2018-07-12T02:39:26.085Z,1027.55
2018-07-12T02:40:26.082Z,1027.56
2018-07-12T02:41:26.078Z,1027.56
2018-07-12T02:42:26.071Z,1027.56
2018-07-12T02:43:26.070Z,1027.55
2018-07-12T02:44:26.063Z,1027.53
2018-07-12T02:45:26.058Z,1027.54
2018-07-12T02:46:26.054Z,1027.53
2018-07-12T02:47:26.052Z,1027.49
2018-07-12T02:48:26.097Z,1027.47
2018-07-12T02:49:26.043Z,1027.46
2018-07-12T02:50:26.036Z,1027.46
2018-07-12T02:51:26.031Z,1027.43
2018-07-12T02:52:26.027Z,1027.43
2018-07-12T02:53:26.022Z,1027.45
2018-07-12T02:54:26.019Z,1027.44
2018-07-12T02:55:26.014Z,1027.54
2018-07-12T02:56:26.008Z,1027.48
2018-07-12T02:57:26.005Z,1027.48
2018-07-12T02:58:26.000Z,1027.5
2018-07-12T02:59:25.999Z,1027.46
2018-07-12T03:00:25.995Z,1027.48
2018-07-12T03:01:25.985Z,1027.47
2018-07-12T03:02:25.985Z,1027.46
2018-07-12T03:03:25.974Z,1027.42
2018-07-12T03:04:25.970Z,1027.39
2018-07-12T03:05:25.971Z,1027.4
2018-07-12T03:06:25.961Z,1027.39
2018-07-12T03:07:25.955Z,1027.4
2018-07-12T03:08:25.951Z,1027.43
2018-07-12T03:09:25.946Z,1027.46
2018-07-12T03:10:25.941Z,1027.51
2018-07-12T03:11:25.939Z,1027.47
2018-07-12T03:12:25.932Z,1027.45
2018-07-12T03:13:25.930Z,1027.44
2018-07-12T03:14:25.923Z,1027.45
2018-07-12T03:15:25.921Z,1027.46
2018-07-12T03:16:25.912Z,1027.5
2018-07-12T03:17:25.908Z,1027.49
2018-07-12T03:18:25.902Z,1027.49
2018-07-12T03:19:25.902Z,1027.46
2018-07-12T03:20:25.892Z,1027.46
2018-07-12T03:21:25.888Z,1027.42
2018-07-12T03:22:25.883Z,1027.38
2018-07-12T03:23:25.878Z,1027.36
2018-07-12T03:24:25.874Z,1027.41
2018-07-12T03:25:25.868Z,1027.43
2018-07-12T03:26:25.864Z,1027.34
2018-07-12T03:27:25.859Z,1027.34
2018-07-12T03:28:25.856Z,1027.3
2018-07-12T03:29:25.848Z,1027.29
2018-07-12T03:30:25.844Z,1027.28
2018-07-12T03:31:25.840Z,1027.3
2018-07-12T03:32:25.834Z,1027.3
2018-07-12T03:33:25.829Z,1027.25
2018-07-12T03:34:25.824Z,1027.27
2018-07-12T03:35:25.819Z,1027.26
2018-07-12T03:36:25.814Z,1027.22
2018-07-12T03:37:25.809Z,1027.22
2018-07-12T03:38:25.804Z,1027.21
2018-07-12T03:39:25.800Z,1027.23
2018-07-12T03:40:25.805Z,1027.19
2018-07-12T03:41:25.792Z,1027.21
2018-07-12T03:42:25.785Z,1027.17
2018-07-12T03:43:25.780Z,1027.15
2018-07-12T03:44:25.775Z,1027.12
2018-07-12T03:45:25.769Z,1027.11
2018-07-12T03:46:25.765Z,1027.07
2018-07-12T03:47:25.759Z,1027.03
2018-07-12T03:48:25.755Z,1027.07
2018-07-12T03:49:25.750Z,1027.03
2018-07-12T03:50:25.745Z,1027.03
2018-07-12T03:51:25.740Z,1027.03
2018-07-12T03:52:25.735Z,1027
2018-07-12T03:53:25.729Z,1027
2018-07-12T03:54:25.725Z,1026.99
2018-07-12T03:55:25.720Z,1027
2018-07-12T03:56:25.714Z,1027.01
2018-07-12T03:57:25.714Z,1026.97
2018-07-12T03:58:25.704Z,1026.94
2018-07-12T03:59:25.698Z,1026.92
2018-07-12T04:00:25.697Z,1026.9
2018-07-12T04:01:25.690Z,1026.96
2018-07-12T04:02:25.685Z,1026.94
2018-07-12T04:03:25.680Z,1026.93
2018-07-12T04:04:25.678Z,1026.95
2018-07-12T04:05:25.670Z,1026.94
2018-07-12T04:06:25.664Z,1026.92
2018-07-12T04:07:25.660Z,1026.91
2018-07-12T04:08:25.654Z,1026.9
2018-07-12T04:09:25.648Z,1026.86
2018-07-12T04:10:25.644Z,1026.83
2018-07-12T04:11:25.639Z,1026.85
2018-07-12T04:12:25.635Z,1026.84
2018-07-12T04:13:25.630Z,1026.88
2018-07-12T04:14:25.624Z,1026.87
2018-07-12T04:15:25.623Z,1026.83
2018-07-12T04:16:25.615Z,1026.83
2018-07-12T04:17:25.610Z,1026.86
2018-07-12T04:18:25.607Z,1026.85
2018-07-12T04:19:25.600Z,1026.82
2018-07-12T04:20:25.595Z,1026.82
2018-07-12T04:21:25.590Z,1026.82
2018-07-12T04:22:25.585Z,1026.83
2018-07-12T04:23:25.581Z,1026.77
2018-07-12T04:24:25.574Z,1026.77
2018-07-12T04:25:25.570Z,1026.74
2018-07-12T04:26:25.565Z,1026.68
2018-07-12T04:27:25.560Z,1026.62
2018-07-12T04:28:25.557Z,1026.65
2018-07-12T04:29:25.551Z,1026.64
2018-07-12T04:30:25.547Z,1026.63
2018-07-12T04:31:25.543Z,1026.66
2018-07-12T04:32:25.536Z,1026.66
2018-07-12T04:33:25.532Z,1026.63
2018-07-12T04:34:25.527Z,1026.64
2018-07-12T04:35:25.522Z,1026.6
2018-07-12T04:36:25.516Z,1026.56
2018-07-12T04:37:25.512Z,1026.54
2018-07-12T04:38:25.506Z,1026.51
2018-07-12T04:39:25.502Z,1026.56
2018-07-12T04:40:25.497Z,1026.54
2018-07-12T04:41:25.492Z,1026.5
2018-07-12T04:42:25.491Z,1026.54
2018-07-12T04:43:25.482Z,1026.53
2018-07-12T04:44:25.480Z,1026.56
2018-07-12T04:45:25.473Z,1026.55
2018-07-12T04:46:25.467Z,1026.56
2018-07-12T04:47:25.463Z,1026.55
2018-07-12T04:48:25.458Z,1026.51
2018-07-12T04:49:25.452Z,1026.53
2018-07-12T04:50:25.447Z,1026.53
2018-07-12T04:51:25.443Z,1026.49
2018-07-12T04:52:25.439Z,1026.45
2018-07-12T04:53:25.433Z,1026.44
2018-07-12T04:54:25.428Z,1026.42
2018-07-12T04:55:25.423Z,1026.37
2018-07-12T04:56:25.418Z,1026.36
2018-07-12T04:57:25.413Z,1026.28
2018-07-12T04:58:25.430Z,1026.23
2018-07-12T04:59:25.404Z,1026.26
2018-07-12T05:00:25.398Z,1026.18
2018-07-12T05:01:25.394Z,1026.1
2018-07-12T05:02:25.390Z,1026.06
2018-07-12T05:03:25.394Z,1026.03
2018-07-12T05:04:25.382Z,1025.99
2018-07-12T05:05:25.376Z,1025.93
2018-07-12T05:06:25.378Z,1025.92
2018-07-12T05:07:25.365Z,1025.82
2018-07-12T05:08:25.359Z,1025.81
2018-07-12T05:09:25.355Z,1025.84
2018-07-12T05:10:25.395Z,1025.79
2018-07-12T05:11:25.344Z,1025.79
2018-07-12T05:12:25.341Z,1025.83
2018-07-12T05:13:25.335Z,1025.84
2018-07-12T05:14:25.330Z,1025.89
2018-07-12T05:15:25.325Z,1025.93
2018-07-12T05:16:25.320Z,1025.99
2018-07-12T05:17:25.320Z,1025.96
2018-07-12T05:18:25.312Z,1025.97
2018-07-12T05:19:25.306Z,1025.93
2018-07-12T05:20:25.301Z,1025.87
2018-07-12T05:21:25.297Z,1025.85
2018-07-12T05:22:25.291Z,1025.85
2018-07-12T05:23:25.292Z,1025.8
2018-07-12T05:24:25.282Z,1025.86
2018-07-12T05:25:25.277Z,1025.88
2018-07-12T05:26:25.272Z,1025.81
2018-07-12T05:27:25.267Z,1025.73
2018-07-12T05:28:25.262Z,1025.72
2018-07-12T05:29:25.257Z,1025.63
2018-07-12T05:30:25.252Z,1025.59
2018-07-12T05:31:25.246Z,1025.49
2018-07-12T05:32:25.242Z,1025.49
2018-07-12T05:33:25.237Z,1025.47
2018-07-12T05:34:25.231Z,1025.45
2018-07-12T05:35:25.227Z,1025.36
2018-07-12T05:36:25.221Z,1025.35
2018-07-12T05:37:25.216Z,1025.3
2018-07-12T05:38:25.211Z,1025.31
2018-07-12T05:39:25.333Z,1025.29
2018-07-12T05:40:25.202Z,1025.21
2018-07-12T05:41:25.195Z,1025.15
2018-07-12T05:42:25.191Z,1025.18
2018-07-12T05:43:25.186Z,1025.15
2018-07-12T05:44:25.182Z,1025.13
2018-07-12T05:45:25.175Z,1025.15
2018-07-12T05:46:25.170Z,1025.16
2018-07-12T05:47:25.165Z,1025.21
2018-07-12T05:48:25.159Z,1025.32
2018-07-12T05:49:25.166Z,1025.37
2018-07-12T05:50:25.149Z,1025.32
2018-07-12T05:51:25.145Z,1025.27
2018-07-12T05:52:25.139Z,1025.18
2018-07-12T05:53:25.134Z,1025.21
2018-07-12T05:54:25.132Z,1025.15
2018-07-12T05:55:25.125Z,1024.95
2018-07-12T05:56:25.119Z,1024.84
2018-07-12T05:57:25.182Z,1024.8
2018-07-12T05:58:25.109Z,1024.75
2018-07-12T05:59:25.101Z,1024.85
2018-07-12T06:00:25.097Z,1025.13
2018-07-12T06:01:25.092Z,1025.02
2018-07-12T06:02:25.088Z,1025.01
2018-07-12T06:03:25.083Z,1024.99
2018-07-12T06:04:25.084Z,1024.99
2018-07-12T06:05:25.073Z,1024.98
2018-07-12T06:06:25.067Z,1024.99
2018-07-12T06:07:25.073Z,1024.97
2018-07-12T06:08:25.057Z,1024.99
2018-07-12T06:09:25.053Z,1024.97
2018-07-12T06:10:25.058Z,1025.07
2018-07-12T06:11:25.042Z,1025.1
2018-07-12T06:12:25.040Z,1025.07
2018-07-12T06:13:25.039Z,1024.91
2018-07-12T06:14:25.027Z,1024.76
2018-07-12T06:15:25.021Z,1024.53
2018-07-12T06:16:25.016Z,1024.46
2018-07-12T06:17:25.010Z,1024.52
2018-07-12T06:18:25.034Z,1024.61
2018-07-12T06:19:24.999Z,1024.69
2018-07-12T06:20:24.995Z,1024.68
2018-07-12T06:21:24.990Z,1024.68
2018-07-12T06:22:24.989Z,1024.62
2018-07-12T06:23:24.980Z,1024.48
2018-07-12T06:24:24.974Z,1024.43
2018-07-12T06:25:24.969Z,1024.3
2018-07-12T06:26:24.965Z,1024.16
2018-07-12T06:27:24.960Z,1024.03
2018-07-12T06:28:24.955Z,1023.94
2018-07-12T06:29:24.950Z,1023.82
2018-07-12T06:30:24.945Z,1023.72
2018-07-12T06:31:24.940Z,1023.7
2018-07-12T06:32:24.937Z,1023.66
2018-07-12T06:33:24.931Z,1023.62
2018-07-12T06:34:24.927Z,1023.49
2018-07-12T06:35:24.922Z,1023.35
2018-07-12T06:36:24.918Z,1023.11
2018-07-12T06:37:24.915Z,1023.05
2018-07-12T06:38:24.911Z,1022.95
2018-07-12T06:39:24.906Z,1022.9
2018-07-12T06:40:24.903Z,1022.95
2018-07-12T06:41:24.900Z,1022.93
2018-07-12T06:42:24.897Z,1022.5
2018-07-12T06:43:24.894Z,1021.95
2018-07-12T06:44:24.891Z,1021.38
2018-07-12T06:45:24.889Z,1020.64
2018-07-12T06:46:24.886Z,1021.06
2018-07-12T06:47:24.886Z,1020.4
2018-07-12T06:48:24.886Z,1020.62
2018-07-12T06:49:24.882Z,1020.87
2018-07-12T06:50:24.881Z,1020.89
2018-07-12T06:51:24.881Z,1021.11
2018-07-12T06:52:24.881Z,1021.58
2018-07-12T06:53:24.883Z,1021.58
2018-07-12T06:54:24.880Z,1021.37
2018-07-12T06:55:24.881Z,1021.5
2018-07-12T06:56:24.882Z,1021.73
2018-07-12T06:57:24.882Z,1021.74
2018-07-12T06:58:24.883Z,1021.81
2018-07-12T06:59:24.883Z,1021.67
2018-07-12T07:00:24.884Z,1021.58
2018-07-12T07:01:24.884Z,1021.63
2018-07-12T07:02:24.888Z,1021.56
2018-07-12T07:03:24.886Z,1021.58
2018-07-12T07:04:24.888Z,1021.85
2018-07-12T07:05:24.891Z,1022.11
2018-07-12T07:06:24.888Z,1022.38
2018-07-12T07:07:24.890Z,1022.37
2018-07-12T07:08:24.889Z,1022.21
2018-07-12T07:09:24.892Z,1022.4
2018-07-12T07:10:24.891Z,1022.55
2018-07-12T07:11:24.927Z,1022.58
2018-07-12T07:12:24.893Z,1022.46
2018-07-12T07:13:24.894Z,1022.43
2018-07-12T07:14:24.894Z,1022.23
2018-07-12T07:15:24.897Z,1022.12
2018-07-12T07:16:24.895Z,1021.94
2018-07-12T07:17:24.895Z,1022.14
2018-07-12T07:18:24.897Z,1022.3
2018-07-12T07:19:24.896Z,1022.46
2018-07-12T07:20:24.898Z,1022.46
2018-07-12T07:21:24.899Z,1022.35
2018-07-12T07:22:24.900Z,1022.2
2018-07-12T07:23:24.900Z,1022.02
2018-07-12T07:24:24.917Z,1021.38
2018-07-12T07:25:24.905Z,1021.06
2018-07-12T07:26:24.994Z,1021.13
2018-07-12T07:27:24.907Z,1020.97
2018-07-12T07:28:24.907Z,1019.88
2018-07-12T07:29:24.909Z,1019.92
2018-07-12T07:30:24.909Z,1020.47
2018-07-12T07:31:24.912Z,1020.87
2018-07-12T07:32:24.918Z,1021.25
2018-07-12T07:33:24.952Z,1021.67
2018-07-12T07:34:24.919Z,1021.79
2018-07-12T07:35:24.922Z,1021.97
2018-07-12T07:36:24.924Z,1022.18
2018-07-12T07:37:24.927Z,1022.18
2018-07-12T07:38:24.931Z,1022.19
2018-07-12T07:39:24.933Z,1022.29
2018-07-12T07:40:24.933Z,1022.2
2018-07-12T07:41:24.934Z,1022.11
2018-07-12T07:42:24.936Z,1021.99
2018-07-12T07:43:24.940Z,1021.52
2018-07-12T07:44:24.942Z,1020.99
2018-07-12T07:45:24.944Z,1020.46
2018-07-12T07:46:24.947Z,1020.67
2018-07-12T07:47:24.948Z,1020.89
2018-07-12T07:48:24.950Z,1021.12
2018-07-12T07:49:25.080Z,1021.18
2018-07-12T07:50:24.956Z,1021.39
2018-07-12T07:51:24.958Z,1021.62
2018-07-12T07:52:24.962Z,1021.69
2018-07-12T07:53:24.965Z,1021.92
2018-07-12T07:54:24.965Z,1022.08
2018-07-12T07:55:24.969Z,1022.39
2018-07-12T07:56:24.970Z,1022.57
2018-07-12T07:57:24.973Z,1022.73
2018-07-12T07:58:24.977Z,1022.96
2018-07-12T07:59:24.976Z,1023.15
2018-07-12T08:00:24.979Z,1023.15
2018-07-12T08:01:24.996Z,1023.2
2018-07-12T08:02:24.981Z,1023.4
2018-07-12T08:03:24.992Z,1023.49
2018-07-12T08:04:24.983Z,1023.31
2018-07-12T08:05:24.985Z,1023.21
2018-07-12T08:06:24.986Z,1023.11
2018-07-12T08:07:24.998Z,1023.12
2018-07-12T08:08:24.990Z,1023.19
2018-07-12T08:09:25.044Z,1023.25
2018-07-12T08:10:24.987Z,1023.3
2018-07-12T08:11:25.009Z,1023.34
2018-07-12T08:12:25.000Z,1023.41
2018-07-12T08:13:24.990Z,1023.45
2018-07-12T08:14:24.990Z,1023.5
2018-07-12T08:15:24.992Z,1023.52
2018-07-12T08:16:24.989Z,1023.57
2018-07-12T08:17:24.990Z,1023.63
2018-07-12T08:18:24.988Z,1023.58
2018-07-12T08:19:24.995Z,1023.67
2018-07-12T08:20:24.991Z,1023.8
2018-07-12T08:21:24.987Z,1023.92
2018-07-12T08:22:24.987Z,1024.05
2018-07-12T08:23:25.012Z,1024.2
2018-07-12T08:24:24.986Z,1024.29
2018-07-12T08:25:24.986Z,1024.4
2018-07-12T08:26:24.983Z,1024.53
2018-07-12T08:27:24.986Z,1024.61
2018-07-12T08:28:24.982Z,1024.69
2018-07-12T08:29:24.981Z,1024.76
2018-07-12T08:30:24.980Z,1024.86
2018-07-12T08:31:24.980Z,1025.04
2018-07-12T08:32:24.976Z,1025.15
2018-07-12T08:33:25.026Z,1025.24
2018-07-12T08:34:24.974Z,1025.34
2018-07-12T08:35:24.975Z,1025.36
2018-07-12T08:36:24.970Z,1025.36
2018-07-12T08:37:24.968Z,1025.39
2018-07-12T08:38:24.971Z,1025.38
2018-07-12T08:39:24.967Z,1025.43
2018-07-12T08:40:25.016Z,1025.44
2018-07-12T08:41:24.959Z,1025.36
2018-07-12T08:42:24.971Z,1025.2
2018-07-12T08:43:24.954Z,1025.11
2018-07-12T08:44:24.955Z,1025.05
2018-07-12T08:45:24.950Z,1024.98
2018-07-12T08:46:24.949Z,1025.01
2018-07-12T08:47:24.945Z,1025.05
2018-07-12T08:48:24.974Z,1025.05
2018-07-12T08:49:24.940Z,1025.04
2018-07-12T08:50:24.939Z,1025.04
2018-07-12T08:51:24.935Z,1025.05
2018-07-12T08:52:24.934Z,1025.09
2018-07-12T08:53:24.930Z,1025.08
2018-07-12T08:54:24.926Z,1025.05
2018-07-12T08:55:24.925Z,1025.08
2018-07-12T08:56:24.923Z,1024.96
2018-07-12T08:57:24.919Z,1024.9
2018-07-12T08:58:24.917Z,1024.83
2018-07-12T08:59:24.915Z,1024.96
2018-07-12T09:00:24.914Z,1025.08
2018-07-12T09:01:24.914Z,1025.13
2018-07-12T09:02:24.906Z,1025.13
2018-07-12T09:03:24.904Z,1025.13
2018-07-12T09:04:24.901Z,1025.05
2018-07-12T09:05:24.899Z,1025.04
2018-07-12T09:06:24.899Z,1025.15
2018-07-12T09:07:24.894Z,1025.26
2018-07-12T09:08:24.892Z,1025.26
2018-07-12T09:09:24.888Z,1025.28
2018-07-12T09:10:24.886Z,1025.24
2018-07-12T09:11:24.884Z,1025.36
2018-07-12T09:12:24.881Z,1025.38
2018-07-12T09:13:24.879Z,1025.45
2018-07-12T09:14:24.876Z,1025.48
2018-07-12T09:15:24.880Z,1025.53
2018-07-12T09:16:24.870Z,1025.55
2018-07-12T09:17:24.869Z,1025.6
2018-07-12T09:18:24.866Z,1025.6
2018-07-12T09:19:24.867Z,1025.54
2018-07-12T09:20:24.861Z,1025.55
2018-07-12T09:21:24.857Z,1025.58
2018-07-12T09:22:24.856Z,1025.56
2018-07-12T09:23:24.851Z,1025.62
2018-07-12T09:24:24.848Z,1025.57
2018-07-12T09:25:25.154Z,1025.56
2018-07-12T09:26:24.842Z,1025.46
2018-07-12T09:27:24.842Z,1025.24
2018-07-12T09:28:24.836Z,1025.05
2018-07-12T09:29:24.839Z,1025.09
2018-07-12T09:30:24.831Z,1025.12
2018-07-12T09:31:24.828Z,1025.02
2018-07-12T09:32:24.836Z,1025
2018-07-12T09:33:24.824Z,1025.03
2018-07-12T09:34:24.832Z,1025.04
2018-07-12T09:35:24.832Z,1025.04
2018-07-12T09:36:24.828Z,1025.03
2018-07-12T09:37:24.815Z,1025.06
2018-07-12T09:38:24.807Z,1025.08
2018-07-12T09:39:24.821Z,1025.09
2018-07-12T09:40:24.826Z,1025.12
2018-07-12T09:41:24.802Z,1025.21
2018-07-12T09:42:24.810Z,1025.19
2018-07-12T09:43:24.795Z,1025.23
2018-07-12T09:44:24.792Z,1025.41
2018-07-12T09:45:24.789Z,1025.5
2018-07-12T09:46:24.786Z,1025.66
2018-07-12T09:47:24.863Z,1025.73
2018-07-12T09:48:24.782Z,1025.76
2018-07-12T09:49:24.864Z,1025.87
2018-07-12T09:50:24.777Z,1025.97
2018-07-12T09:51:24.773Z,1026.05
2018-07-12T09:52:24.771Z,1026.03
2018-07-12T09:53:24.767Z,1026.12
2018-07-12T09:54:24.764Z,1026.07
2018-07-12T09:55:24.766Z,1026.13
2018-07-12T09:56:25.036Z,1026.18
2018-07-12T09:57:24.758Z,1026.22
2018-07-12T09:58:24.753Z,1026.27
2018-07-12T09:59:24.749Z,1026.33
2018-07-12T10:00:24.746Z,1026.35
2018-07-12T10:01:24.746Z,1026.24
2018-07-12T10:02:24.740Z,1026.37
2018-07-12T10:03:24.737Z,1026.32
2018-07-12T10:04:24.732Z,1026.35
2018-07-12T10:05:24.729Z,1026.25
2018-07-12T10:06:24.727Z,1026.27
2018-07-12T10:07:24.725Z,1026.27
2018-07-12T10:08:24.721Z,1026.26
2018-07-12T10:09:24.715Z,1026.33
2018-07-12T10:10:24.762Z,1026.25
2018-07-12T10:11:24.707Z,1026.16
2018-07-12T10:12:24.709Z,1026.12
2018-07-12T10:13:24.701Z,1026.06
2018-07-12T10:14:24.698Z,1026.11
2018-07-12T10:15:24.693Z,1026.06
2018-07-12T10:16:24.690Z,1026.04
2018-07-12T10:17:24.688Z,1026.05
2018-07-12T10:18:24.682Z,1026.04
2018-07-12T10:19:24.684Z,1026.04
2018-07-12T10:20:24.678Z,1026.09
2018-07-12T10:21:24.686Z,1026.15
2018-07-12T10:22:24.667Z,1026.06
2018-07-12T10:23:24.664Z,1026.12
2018-07-12T10:24:24.663Z,1026.12
2018-07-12T10:25:24.657Z,1026.1
2018-07-12T10:26:24.667Z,1026.08
2018-07-12T10:27:24.900Z,1026.01
2018-07-12T10:28:24.649Z,1025.89
2018-07-12T10:29:24.641Z,1025.78
2018-07-12T10:30:24.645Z,1025.94
2018-07-12T10:31:24.640Z,1025.86
2018-07-12T10:32:24.633Z,1025.85
2018-07-12T10:33:24.637Z,1025.77
2018-07-12T10:34:24.638Z,1025.86
2018-07-12T10:35:24.622Z,1025.71
2018-07-12T10:36:24.621Z,1025.54
2018-07-12T10:37:24.614Z,1025.47
2018-07-12T10:38:24.611Z,1025.37
2018-07-12T10:39:24.609Z,1025.36
2018-07-12T10:40:24.604Z,1025.33
2018-07-12T10:41:24.600Z,1025.37
2018-07-12T10:42:24.598Z,1025.41
2018-07-12T10:43:24.598Z,1025.42
2018-07-12T10:44:24.616Z,1025.46
2018-07-12T10:45:24.587Z,1025.53
2018-07-12T10:46:24.585Z,1025.57
2018-07-12T10:47:24.581Z,1025.49
2018-07-12T10:48:24.595Z,1025.42
2018-07-12T10:49:24.580Z,1025.46
2018-07-12T10:50:24.573Z,1025.43
2018-07-12T10:51:24.570Z,1025.33
2018-07-12T10:52:24.576Z,1025.42
2018-07-12T10:53:24.564Z,1025.34
2018-07-12T10:54:24.561Z,1025.43
2018-07-12T10:55:24.558Z,1025.73
2018-07-12T10:56:24.556Z,1025.88
2018-07-12T10:57:24.553Z,1025.86
2018-07-12T10:58:24.549Z,1025.83
2018-07-12T10:59:24.548Z,1025.98
2018-07-12T11:00:24.546Z,1026.01
2018-07-12T11:01:24.542Z,1025.88
2018-07-12T11:02:24.538Z,1025.91
2018-07-12T11:03:24.535Z,1025.95
2018-07-12T11:04:24.539Z,1025.84
2018-07-12T11:05:24.533Z,1025.69
2018-07-12T11:06:24.526Z,1025.61
2018-07-12T11:07:24.523Z,1025.47
2018-07-12T11:08:24.525Z,1025.24
2018-07-12T11:09:24.518Z,1025.14
2018-07-12T11:10:24.553Z,1024.97
2018-07-12T11:11:24.512Z,1025.07
2018-07-12T11:12:24.510Z,1025.12
2018-07-12T11:13:24.505Z,1025.16
2018-07-12T11:14:24.504Z,1025.11
2018-07-12T11:15:24.501Z,1025.17
2018-07-12T11:16:24.501Z,1025.22
2018-07-12T11:17:24.503Z,1025.25
2018-07-12T11:18:24.492Z,1025.34
2018-07-12T11:19:24.490Z,1025.4
2018-07-12T11:20:24.486Z,1025.36
2018-07-12T11:21:24.484Z,1025.38
2018-07-12T11:22:24.482Z,1025.37
2018-07-12T11:23:24.481Z,1025.26
2018-07-12T11:24:24.475Z,1025.23
2018-07-12T11:25:24.477Z,1025.23
2018-07-12T11:26:24.472Z,1025.27
2018-07-12T11:27:24.471Z,1025.25
2018-07-12T11:28:24.466Z,1025.25
2018-07-12T11:29:24.468Z,1025.38
2018-07-12T11:30:24.461Z,1025.46
2018-07-12T11:31:24.464Z,1025.53
2018-07-12T11:32:24.456Z,1025.51
2018-07-12T11:33:24.454Z,1025.55
2018-07-12T11:34:24.452Z,1025.64
2018-07-12T11:35:24.456Z,1025.7
2018-07-12T11:36:24.446Z,1025.7
2018-07-12T11:37:24.449Z,1025.85
2018-07-12T11:38:24.441Z,1025.85
2018-07-12T11:39:24.452Z,1025.83
2018-07-12T11:40:24.435Z,1025.76
2018-07-12T11:41:24.438Z,1025.69
2018-07-12T11:42:24.430Z,1025.77
2018-07-12T11:43:24.428Z,1025.76
2018-07-12T11:44:24.426Z,1025.77
2018-07-12T11:45:24.422Z,1025.85
2018-07-12T11:46:24.434Z,1025.78
2018-07-12T11:47:24.428Z,1025.79
2018-07-12T11:48:24.415Z,1025.8
2018-07-12T11:49:24.412Z,1025.77
2018-07-12T11:50:24.411Z,1025.87
2018-07-12T11:51:24.408Z,1025.98
2018-07-12T11:52:24.406Z,1026.06
2018-07-12T11:53:24.404Z,1026.09
2018-07-12T11:54:24.402Z,1026.11
2018-07-12T11:55:24.398Z,1026.04
2018-07-12T11:56:24.398Z,1026.01
2018-07-12T11:57:24.409Z,1026
2018-07-12T11:58:24.389Z,1025.91
2018-07-12T11:59:24.388Z,1025.91
2018-07-12T12:00:24.385Z,1025.9
2018-07-12T12:01:24.425Z,1025.81
2018-07-12T12:02:24.380Z,1025.82
2018-07-12T12:03:24.380Z,1025.83
2018-07-12T12:04:24.375Z,1025.8
2018-07-12T12:05:24.405Z,1025.76
2018-07-12T12:06:24.371Z,1025.73
2018-07-12T12:07:24.368Z,1025.76
2018-07-12T12:08:24.364Z,1025.82